sensor_id;sensor_type;location;lat;lon;timestamp;temperature;humidity
14095;DHT22;18096;48.142;16.290;2023-02-15T00:01:20;4.70;99.90
14095;DHT22;18096;48.142;16.290;2023-02-15T00:03:47;4.80;99.90
14095;DHT22;18096;48.142;16.290;2023-02-15T00:06:13;4.70;99.90
14095;DHT22;18096;48.142;16.290;2023-02-15T00:08:38;4.70;99.90
14095;DHT22;18096;48.142;16.290;2023-02-15T00:11:08;4.70;99.90
14095;DHT22;18096;48.142;16.290;2023-02-15T00:13:34;4.70;99.90
14095;DHT22;18096;48.142;16.290;2023-02-15T00:16:05;4.70;99.90
14095;DHT22;18096;48.142;16.290;2023-02-15T00:18:31;4.70;99.90
14095;DHT22;18096;48.142;16.290;2023-02-15T00:20:57;4.70;99.90
14095;DHT22;18096;48.142;16.290;2023-02-15T00:23:22;4.70;99.90
14095;DHT22;18096;48.142;16.290;2023-02-15T00:25:48;4.70;99.90
14095;DHT22;18096;48.142;16.290;2023-02-15T00:28:14;4.70;99.90
14095;DHT22;18096;48.142;16.290;2023-02-15T00:30:39;4.70;99.90
14095;DHT22;18096;48.142;16.290;2023-02-15T00:33:05;4.70;99.90
14095;DHT22;18096;48.142;16.290;2023-02-15T00:35:30;4.70;99.90
14095;DHT22;18096;48.142;16.290;2023-02-15T00:37:56;4.70;99.90
14095;DHT22;18096;48.142;16.290;2023-02-15T00:40:21;4.70;99.90
14095;DHT22;18096;48.142;16.290;2023-02-15T00:42:47;4.60;99.90
14095;DHT22;18096;48.142;16.290;2023-02-15T00:45:12;4.60;99.90
14095;DHT22;18096;48.142;16.290;2023-02-15T00:47:38;4.60;99.90
14095;DHT22;18096;48.142;16.290;2023-02-15T00:50:04;4.60;99.90
14095;DHT22;18096;48.142;16.290;2023-02-15T00:52:30;4.60;99.90
14095;DHT22;18096;48.142;16.290;2023-02-15T00:54:56;4.60;99.90
14095;DHT22;18096;48.142;16.290;2023-02-15T00:57:21;4.60;99.90
14095;DHT22;18096;48.142;16.290;2023-02-15T00:59:47;4.60;99.90
14095;DHT22;18096;48.142;16.290;2023-02-15T01:02:13;4.60;99.90
14095;DHT22;18096;48.142;16.290;2023-02-15T01:04:38;4.60;99.90
14095;DHT22;18096;48.142;16.290;2023-02-15T01:07:04;4.60;99.90
14095;DHT22;18096;48.142;16.290;2023-02-15T01:09:29;4.60;99.90
14095;DHT22;18096;48.142;16.290;2023-02-15T01:11:55;4.60;99.90
14095;DHT22;18096;48.142;16.290;2023-02-15T01:14:20;4.60;99.90
14095;DHT22;18096;48.142;16.290;2023-02-15T01:16:46;4.60;99.90
14095;DHT22;18096;48.142;16.290;2023-02-15T01:19:11;4.60;99.90
14095;DHT22;18096;48.142;16.290;2023-02-15T01:21:37;4.60;99.90
14095;DHT22;18096;48.142;16.290;2023-02-15T01:24:02;4.60;99.90
14095;DHT22;18096;48.142;16.290;2023-02-15T01:26:28;4.60;99.90
14095;DHT22;18096;48.142;16.290;2023-02-15T01:28:54;4.60;99.90
14095;DHT22;18096;48.142;16.290;2023-02-15T01:31:20;4.50;99.90
14095;DHT22;18096;48.142;16.290;2023-02-15T01:33:46;4.50;99.90
14095;DHT22;18096;48.142;16.290;2023-02-15T01:36:12;4.50;99.90
14095;DHT22;18096;48.142;16.290;2023-02-15T01:38:37;4.50;99.90
14095;DHT22;18096;48.142;16.290;2023-02-15T01:41:05;4.50;99.90
14095;DHT22;18096;48.142;16.290;2023-02-15T01:43:52;4.50;99.90
14095;DHT22;18096;48.142;16.290;2023-02-15T01:46:19;4.40;99.90
14095;DHT22;18096;48.142;16.290;2023-02-15T01:48:46;4.40;99.90
14095;DHT22;18096;48.142;16.290;2023-02-15T01:51:13;4.40;99.90
14095;DHT22;18096;48.142;16.290;2023-02-15T01:53:43;4.40;99.90
14095;DHT22;18096;48.142;16.290;2023-02-15T01:56:13;4.40;99.90
14095;DHT22;18096;48.142;16.290;2023-02-15T01:58:40;4.40;99.90
14095;DHT22;18096;48.142;16.290;2023-02-15T02:01:07;4.30;99.90
14095;DHT22;18096;48.142;16.290;2023-02-15T02:06:05;4.40;99.90
14095;DHT22;18096;48.142;16.290;2023-02-15T02:08:30;4.40;99.90
14095;DHT22;18096;48.142;16.290;2023-02-15T02:10:56;4.40;99.90
14095;DHT22;18096;48.142;16.290;2023-02-15T02:13:22;4.40;99.90
14095;DHT22;18096;48.142;16.290;2023-02-15T02:15:52;4.40;99.90
14095;DHT22;18096;48.142;16.290;2023-02-15T02:23:32;4.30;99.90
14095;DHT22;18096;48.142;16.290;2023-02-15T02:36:18;4.30;99.90
14095;DHT22;18096;48.142;16.290;2023-02-15T02:46:24;4.30;99.90
14095;DHT22;18096;48.142;16.290;2023-02-15T02:48:51;4.30;99.90
14095;DHT22;18096;48.142;16.290;2023-02-15T02:51:18;4.30;99.90
14095;DHT22;18096;48.142;16.290;2023-02-15T02:53:48;4.30;99.90
14095;DHT22;18096;48.142;16.290;2023-02-15T02:58:44;4.30;99.90
14095;DHT22;18096;48.142;16.290;2023-02-15T03:03:47;4.30;99.90
14095;DHT22;18096;48.142;16.290;2023-02-15T03:06:16;4.30;99.90
14095;DHT22;18096;48.142;16.290;2023-02-15T03:08:46;4.30;99.90
14095;DHT22;18096;48.142;16.290;2023-02-15T03:11:13;4.30;99.90
14095;DHT22;18096;48.142;16.290;2023-02-15T03:13:38;4.20;99.90
14095;DHT22;18096;48.142;16.290;2023-02-15T03:16:04;4.30;99.90
14095;DHT22;18096;48.142;16.290;2023-02-15T03:18:51;4.30;99.90
14095;DHT22;18096;48.142;16.290;2023-02-15T03:21:21;4.40;99.90
14095;DHT22;18096;48.142;16.290;2023-02-15T03:23:52;4.30;99.90
14095;DHT22;18096;48.142;16.290;2023-02-15T03:26:20;4.30;99.90
14095;DHT22;18096;48.142;16.290;2023-02-15T03:28:46;4.20;99.90
14095;DHT22;18096;48.142;16.290;2023-02-15T03:31:14;4.20;99.90
14095;DHT22;18096;48.142;16.290;2023-02-15T03:33:42;4.20;99.90
14095;DHT22;18096;48.142;16.290;2023-02-15T03:38:52;4.30;99.90
14095;DHT22;18096;48.142;16.290;2023-02-15T03:41:18;4.30;99.90
14095;DHT22;18096;48.142;16.290;2023-02-15T03:49:02;4.10;99.90
14095;DHT22;18096;48.142;16.290;2023-02-15T03:51:29;4.10;99.90
14095;DHT22;18096;48.142;16.290;2023-02-15T03:54:00;4.10;99.90
14095;DHT22;18096;48.142;16.290;2023-02-15T03:56:27;4.00;99.90
14095;DHT22;18096;48.142;16.290;2023-02-15T03:58:52;4.00;99.90
14095;DHT22;18096;48.142;16.290;2023-02-15T04:01:38;4.00;99.90
14095;DHT22;18096;48.142;16.290;2023-02-15T04:06:57;4.00;99.90
14095;DHT22;18096;48.142;16.290;2023-02-15T04:09:23;4.00;99.90
14095;DHT22;18096;48.142;16.290;2023-02-15T04:12:07;4.00;99.90
14095;DHT22;18096;48.142;16.290;2023-02-15T04:14:33;3.90;99.90
14095;DHT22;18096;48.142;16.290;2023-02-15T04:17:17;4.00;99.90
14095;DHT22;18096;48.142;16.290;2023-02-15T04:19:43;4.10;99.90
14095;DHT22;18096;48.142;16.290;2023-02-15T04:22:27;4.10;99.90
14095;DHT22;18096;48.142;16.290;2023-02-15T04:25:11;4.10;99.90
14095;DHT22;18096;48.142;16.290;2023-02-15T04:27:44;4.00;99.90
14095;DHT22;18096;48.142;16.290;2023-02-15T04:30:10;4.00;99.90
14095;DHT22;18096;48.142;16.290;2023-02-15T04:32:36;4.10;99.90
14095;DHT22;18096;48.142;16.290;2023-02-15T04:35:02;4.10;99.90
14095;DHT22;18096;48.142;16.290;2023-02-15T04:37:27;4.10;99.90
14095;DHT22;18096;48.142;16.290;2023-02-15T04:39:53;4.10;99.90
14095;DHT22;18096;48.142;16.290;2023-02-15T04:42:18;4.10;99.90
14095;DHT22;18096;48.142;16.290;2023-02-15T04:44:44;4.10;99.90
14095;DHT22;18096;48.142;16.290;2023-02-15T04:47:10;4.10;99.90
14095;DHT22;18096;48.142;16.290;2023-02-15T04:49:35;4.10;99.90
14095;DHT22;18096;48.142;16.290;2023-02-15T04:52:01;4.10;99.90
14095;DHT22;18096;48.142;16.290;2023-02-15T04:54:26;4.10;99.90
14095;DHT22;18096;48.142;16.290;2023-02-15T04:56:52;4.10;99.90
14095;DHT22;18096;48.142;16.290;2023-02-15T04:59:17;4.00;99.90
14095;DHT22;18096;48.142;16.290;2023-02-15T05:01:43;4.00;99.90
14095;DHT22;18096;48.142;16.290;2023-02-15T05:04:08;3.90;99.90
14095;DHT22;18096;48.142;16.290;2023-02-15T05:06:34;3.90;99.90
14095;DHT22;18096;48.142;16.290;2023-02-15T05:08:59;3.90;99.90
14095;DHT22;18096;48.142;16.290;2023-02-15T05:11:25;3.90;99.90
14095;DHT22;18096;48.142;16.290;2023-02-15T05:13:51;3.90;99.90
14095;DHT22;18096;48.142;16.290;2023-02-15T05:16:17;3.90;99.90
14095;DHT22;18096;48.142;16.290;2023-02-15T05:18:42;3.90;99.90
14095;DHT22;18096;48.142;16.290;2023-02-15T05:21:08;3.90;99.90
14095;DHT22;18096;48.142;16.290;2023-02-15T05:23:34;4.00;99.90
14095;DHT22;18096;48.142;16.290;2023-02-15T05:25:59;4.00;99.90
14095;DHT22;18096;48.142;16.290;2023-02-15T05:28:43;4.00;99.90
14095;DHT22;18096;48.142;16.290;2023-02-15T05:31:13;4.00;99.90
14095;DHT22;18096;48.142;16.290;2023-02-15T05:33:38;4.00;99.90
14095;DHT22;18096;48.142;16.290;2023-02-15T05:36:04;3.90;99.90
14095;DHT22;18096;48.142;16.290;2023-02-15T05:38:30;3.90;99.90
14095;DHT22;18096;48.142;16.290;2023-02-15T05:40:56;3.90;99.90
14095;DHT22;18096;48.142;16.290;2023-02-15T05:43:22;3.90;99.90
14095;DHT22;18096;48.142;16.290;2023-02-15T05:45:48;3.90;99.90
14095;DHT22;18096;48.142;16.290;2023-02-15T05:48:14;3.90;99.90
14095;DHT22;18096;48.142;16.290;2023-02-15T05:50:40;3.90;99.90
14095;DHT22;18096;48.142;16.290;2023-02-15T05:53:05;3.90;99.90
14095;DHT22;18096;48.142;16.290;2023-02-15T05:55:31;3.90;99.90
14095;DHT22;18096;48.142;16.290;2023-02-15T05:57:57;3.90;99.90
14095;DHT22;18096;48.142;16.290;2023-02-15T06:00:22;3.90;99.90
14095;DHT22;18096;48.142;16.290;2023-02-15T06:02:48;3.90;99.90
14095;DHT22;18096;48.142;16.290;2023-02-15T06:05:14;3.90;99.90
14095;DHT22;18096;48.142;16.290;2023-02-15T06:07:42;3.90;99.90
14095;DHT22;18096;48.142;16.290;2023-02-15T06:10:08;3.90;99.90
14095;DHT22;18096;48.142;16.290;2023-02-15T06:12:33;3.90;99.90
14095;DHT22;18096;48.142;16.290;2023-02-15T06:14:59;3.90;99.90
14095;DHT22;18096;48.142;16.290;2023-02-15T06:17:24;3.90;99.90
14095;DHT22;18096;48.142;16.290;2023-02-15T06:19:50;3.90;99.90
14095;DHT22;18096;48.142;16.290;2023-02-15T06:22:15;3.90;99.90
14095;DHT22;18096;48.142;16.290;2023-02-15T06:24:41;4.00;99.90
14095;DHT22;18096;48.142;16.290;2023-02-15T06:27:08;4.00;99.90
14095;DHT22;18096;48.142;16.290;2023-02-15T06:29:34;3.90;99.90
14095;DHT22;18096;48.142;16.290;2023-02-15T06:32:00;3.90;99.90
14095;DHT22;18096;48.142;16.290;2023-02-15T06:34:25;4.00;99.90
14095;DHT22;18096;48.142;16.290;2023-02-15T06:36:51;4.00;99.90
14095;DHT22;18096;48.142;16.290;2023-02-15T06:39:16;4.00;99.90
14095;DHT22;18096;48.142;16.290;2023-02-15T06:41:42;4.00;99.90
14095;DHT22;18096;48.142;16.290;2023-02-15T06:44:08;4.00;99.90
14095;DHT22;18096;48.142;16.290;2023-02-15T06:46:33;4.10;99.90
14095;DHT22;18096;48.142;16.290;2023-02-15T06:48:59;4.00;99.90
14095;DHT22;18096;48.142;16.290;2023-02-15T06:51:24;4.10;99.90
14095;DHT22;18096;48.142;16.290;2023-02-15T06:53:50;4.10;99.90
14095;DHT22;18096;48.142;16.290;2023-02-15T06:56:15;4.10;99.90
14095;DHT22;18096;48.142;16.290;2023-02-15T06:58:41;4.10;99.90
14095;DHT22;18096;48.142;16.290;2023-02-15T07:01:07;4.00;99.90
14095;DHT22;18096;48.142;16.290;2023-02-15T07:03:33;4.00;99.90
14095;DHT22;18096;48.142;16.290;2023-02-15T07:05:59;4.10;99.90
14095;DHT22;18096;48.142;16.290;2023-02-15T07:08:25;4.10;99.90
14095;DHT22;18096;48.142;16.290;2023-02-15T07:10:51;4.10;99.90
14095;DHT22;18096;48.142;16.290;2023-02-15T07:13:17;4.10;99.90
14095;DHT22;18096;48.142;16.290;2023-02-15T07:15:43;4.10;99.90
14095;DHT22;18096;48.142;16.290;2023-02-15T07:18:09;4.20;99.90
14095;DHT22;18096;48.142;16.290;2023-02-15T07:20:36;4.20;99.90
14095;DHT22;18096;48.142;16.290;2023-02-15T07:23:02;4.30;99.90
14095;DHT22;18096;48.142;16.290;2023-02-15T07:25:27;4.30;99.90
14095;DHT22;18096;48.142;16.290;2023-02-15T07:27:57;4.30;99.90
14095;DHT22;18096;48.142;16.290;2023-02-15T07:30:23;4.30;99.90
14095;DHT22;18096;48.142;16.290;2023-02-15T07:32:48;4.30;99.90
14095;DHT22;18096;48.142;16.290;2023-02-15T07:35:33;4.30;99.90
14095;DHT22;18096;48.142;16.290;2023-02-15T07:37:58;4.40;99.90
14095;DHT22;18096;48.142;16.290;2023-02-15T07:40:24;4.30;99.90
14095;DHT22;18096;48.142;16.290;2023-02-15T07:42:49;4.40;99.90
14095;DHT22;18096;48.142;16.290;2023-02-15T07:45:17;4.40;99.90
14095;DHT22;18096;48.142;16.290;2023-02-15T07:47:43;4.40;99.90
14095;DHT22;18096;48.142;16.290;2023-02-15T07:50:08;4.40;99.90
14095;DHT22;18096;48.142;16.290;2023-02-15T07:52:34;4.40;99.90
14095;DHT22;18096;48.142;16.290;2023-02-15T07:54:59;4.40;99.90
14095;DHT22;18096;48.142;16.290;2023-02-15T07:57:25;4.40;99.90
14095;DHT22;18096;48.142;16.290;2023-02-15T07:59:50;4.40;99.90
14095;DHT22;18096;48.142;16.290;2023-02-15T08:02:16;4.40;99.90
14095;DHT22;18096;48.142;16.290;2023-02-15T08:04:42;4.40;99.90
14095;DHT22;18096;48.142;16.290;2023-02-15T08:07:07;4.40;99.90
14095;DHT22;18096;48.142;16.290;2023-02-15T08:09:33;4.50;99.90
14095;DHT22;18096;48.142;16.290;2023-02-15T08:11:58;4.50;99.90
14095;DHT22;18096;48.142;16.290;2023-02-15T08:14:24;4.50;99.90
14095;DHT22;18096;48.142;16.290;2023-02-15T08:16:50;4.50;99.90
14095;DHT22;18096;48.142;16.290;2023-02-15T08:21:42;4.50;99.90
14095;DHT22;18096;48.142;16.290;2023-02-15T08:24:09;4.60;99.90
14095;DHT22;18096;48.142;16.290;2023-02-15T08:26:35;4.60;99.90
14095;DHT22;18096;48.142;16.290;2023-02-15T08:29:01;4.60;99.90
14095;DHT22;18096;48.142;16.290;2023-02-15T08:31:27;4.60;99.90
14095;DHT22;18096;48.142;16.290;2023-02-15T08:33:53;4.50;99.90
14095;DHT22;18096;48.142;16.290;2023-02-15T08:36:20;4.60;99.90
14095;DHT22;18096;48.142;16.290;2023-02-15T08:38:47;4.60;99.90
14095;DHT22;18096;48.142;16.290;2023-02-15T08:41:20;4.60;99.90
14095;DHT22;18096;48.142;16.290;2023-02-15T08:43:46;4.60;99.90
14095;DHT22;18096;48.142;16.290;2023-02-15T08:46:13;4.70;99.90
14095;DHT22;18096;48.142;16.290;2023-02-15T08:48:39;4.70;99.90
14095;DHT22;18096;48.142;16.290;2023-02-15T08:51:06;4.80;99.90
14095;DHT22;18096;48.142;16.290;2023-02-15T08:53:31;4.80;99.90
14095;DHT22;18096;48.142;16.290;2023-02-15T08:55:57;4.80;99.90
14095;DHT22;18096;48.142;16.290;2023-02-15T08:58:23;4.80;99.90
14095;DHT22;18096;48.142;16.290;2023-02-15T09:00:49;4.70;99.90
14095;DHT22;18096;48.142;16.290;2023-02-15T09:03:15;4.70;99.90
14095;DHT22;18096;48.142;16.290;2023-02-15T09:05:40;4.70;99.90
14095;DHT22;18096;48.142;16.290;2023-02-15T09:08:06;4.70;99.90
14095;DHT22;18096;48.142;16.290;2023-02-15T09:10:31;4.80;99.90
14095;DHT22;18096;48.142;16.290;2023-02-15T09:12:57;4.80;99.90
14095;DHT22;18096;48.142;16.290;2023-02-15T09:15:22;4.80;99.90
14095;DHT22;18096;48.142;16.290;2023-02-15T09:17:48;4.90;99.90
14095;DHT22;18096;48.142;16.290;2023-02-15T09:20:14;4.90;99.90
14095;DHT22;18096;48.142;16.290;2023-02-15T09:22:39;5.00;99.90
14095;DHT22;18096;48.142;16.290;2023-02-15T09:25:05;4.90;99.90
14095;DHT22;18096;48.142;16.290;2023-02-15T09:27:30;4.90;99.90
14095;DHT22;18096;48.142;16.290;2023-02-15T09:29:56;5.00;99.90
14095;DHT22;18096;48.142;16.290;2023-02-15T09:32:21;5.00;99.90
14095;DHT22;18096;48.142;16.290;2023-02-15T09:34:47;5.00;99.90
14095;DHT22;18096;48.142;16.290;2023-02-15T09:37:13;5.00;99.90
14095;DHT22;18096;48.142;16.290;2023-02-15T09:39:39;5.00;99.90
14095;DHT22;18096;48.142;16.290;2023-02-15T09:50:14;5.10;99.90
14095;DHT22;18096;48.142;16.290;2023-02-15T10:00:00;5.20;99.90
14095;DHT22;18096;48.142;16.290;2023-02-15T10:02:44;5.20;99.90
14095;DHT22;18096;48.142;16.290;2023-02-15T10:08:17;5.30;99.90
14095;DHT22;18096;48.142;16.290;2023-02-15T10:10:53;5.30;99.90
14095;DHT22;18096;48.142;16.290;2023-02-15T10:15:57;5.30;99.90
14095;DHT22;18096;48.142;16.290;2023-02-15T10:28:47;5.40;99.90
14095;DHT22;18096;48.142;16.290;2023-02-15T10:31:27;5.50;99.90
14095;DHT22;18096;48.142;16.290;2023-02-15T10:33:56;5.60;99.90
14095;DHT22;18096;48.142;16.290;2023-02-15T10:39:23;5.50;99.90
14095;DHT22;18096;48.142;16.290;2023-02-15T10:47:06;5.50;99.90
14095;DHT22;18096;48.142;16.290;2023-02-15T10:54:36;5.60;99.90
14095;DHT22;18096;48.142;16.290;2023-02-15T10:59:44;5.70;99.90
14095;DHT22;18096;48.142;16.290;2023-02-15T11:02:24;5.70;99.90
14095;DHT22;18096;48.142;16.290;2023-02-15T11:07:38;5.80;99.90
14095;DHT22;18096;48.142;16.290;2023-02-15T11:10:17;5.80;99.90
14095;DHT22;18096;48.142;16.290;2023-02-15T11:12:44;5.90;99.90
14095;DHT22;18096;48.142;16.290;2023-02-15T11:15:14;5.90;99.90
14095;DHT22;18096;48.142;16.290;2023-02-15T11:17:45;5.90;99.90
14095;DHT22;18096;48.142;16.290;2023-02-15T11:20:28;6.00;99.90
14095;DHT22;18096;48.142;16.290;2023-02-15T11:22:55;6.00;99.90
14095;DHT22;18096;48.142;16.290;2023-02-15T11:25:26;6.00;99.90
14095;DHT22;18096;48.142;16.290;2023-02-15T11:27:53;6.00;99.90
14095;DHT22;18096;48.142;16.290;2023-02-15T11:30:21;6.00;99.90
14095;DHT22;18096;48.142;16.290;2023-02-15T11:32:48;6.00;99.90
14095;DHT22;18096;48.142;16.290;2023-02-15T11:35:19;6.00;99.90
14095;DHT22;18096;48.142;16.290;2023-02-15T11:37:46;6.00;99.90
14095;DHT22;18096;48.142;16.290;2023-02-15T11:40:30;6.00;99.90
14095;DHT22;18096;48.142;16.290;2023-02-15T11:42:58;6.00;99.90
14095;DHT22;18096;48.142;16.290;2023-02-15T11:45:30;6.10;99.90
14095;DHT22;18096;48.142;16.290;2023-02-15T11:47:57;6.10;99.90
14095;DHT22;18096;48.142;16.290;2023-02-15T11:50:24;6.20;99.90
14095;DHT22;18096;48.142;16.290;2023-02-15T11:52:50;6.20;99.90
14095;DHT22;18096;48.142;16.290;2023-02-15T11:55:21;6.10;99.90
14095;DHT22;18096;48.142;16.290;2023-02-15T12:03:07;6.20;99.90
14095;DHT22;18096;48.142;16.290;2023-02-15T12:05:35;6.20;99.90
14095;DHT22;18096;48.142;16.290;2023-02-15T12:08:02;6.20;99.90
14095;DHT22;18096;48.142;16.290;2023-02-15T12:10:34;6.20;99.90
14095;DHT22;18096;48.142;16.290;2023-02-15T12:13:08;6.20;99.90
14095;DHT22;18096;48.142;16.290;2023-02-15T12:15:40;6.30;99.90
14095;DHT22;18096;48.142;16.290;2023-02-15T12:20:51;6.30;99.90
14095;DHT22;18096;48.142;16.290;2023-02-15T12:23:17;6.30;99.90
14095;DHT22;18096;48.142;16.290;2023-02-15T12:25:53;6.30;99.90
14095;DHT22;18096;48.142;16.290;2023-02-15T12:28:26;6.40;99.90
14095;DHT22;18096;48.142;16.290;2023-02-15T12:30:55;6.40;99.90
14095;DHT22;18096;48.142;16.290;2023-02-15T12:33:26;6.40;99.90
14095;DHT22;18096;48.142;16.290;2023-02-15T12:36:12;6.40;99.90
14095;DHT22;18096;48.142;16.290;2023-02-15T12:38:39;6.40;99.90
14095;DHT22;18096;48.142;16.290;2023-02-15T12:41:21;6.40;99.90
14095;DHT22;18096;48.142;16.290;2023-02-15T12:43:47;6.40;99.90
14095;DHT22;18096;48.142;16.290;2023-02-15T12:46:23;6.40;99.90
14095;DHT22;18096;48.142;16.290;2023-02-15T12:51:53;6.50;99.90
14095;DHT22;18096;48.142;16.290;2023-02-15T12:54:27;6.60;99.90
14095;DHT22;18096;48.142;16.290;2023-02-15T12:56:54;6.60;99.90
14095;DHT22;18096;48.142;16.290;2023-02-15T12:59:19;6.60;99.90
14095;DHT22;18096;48.142;16.290;2023-02-15T13:01:45;6.60;99.90
14095;DHT22;18096;48.142;16.290;2023-02-15T13:04:29;6.60;99.90
14095;DHT22;18096;48.142;16.290;2023-02-15T13:06:56;6.60;99.90
14095;DHT22;18096;48.142;16.290;2023-02-15T13:12:43;6.70;99.90
14095;DHT22;18096;48.142;16.290;2023-02-15T13:14:44;6.80;99.90
14095;DHT22;18096;48.142;16.290;2023-02-15T13:17:10;6.90;99.90
14095;DHT22;18096;48.142;16.290;2023-02-15T13:19:40;6.90;99.90
14095;DHT22;18096;48.142;16.290;2023-02-15T13:22:14;6.90;99.90
14095;DHT22;18096;48.142;16.290;2023-02-15T13:24:51;6.90;99.90
14095;DHT22;18096;48.142;16.290;2023-02-15T13:27:19;6.90;99.90
14095;DHT22;18096;48.142;16.290;2023-02-15T13:29:52;6.90;99.90
14095;DHT22;18096;48.142;16.290;2023-02-15T13:32:38;6.90;99.90
14095;DHT22;18096;48.142;16.290;2023-02-15T13:35:09;6.80;99.80
14095;DHT22;18096;48.142;16.290;2023-02-15T13:40:24;6.70;99.90
14095;DHT22;18096;48.142;16.290;2023-02-15T13:58:43;6.40;99.90
14095;DHT22;18096;48.142;16.290;2023-02-15T14:26:59;6.30;99.90
14095;DHT22;18096;48.142;16.290;2023-02-15T14:29:48;6.30;99.90
14095;DHT22;18096;48.142;16.290;2023-02-15T14:32:17;6.30;99.90
14095;DHT22;18096;48.142;16.290;2023-02-15T14:34:46;6.30;99.90
14095;DHT22;18096;48.142;16.290;2023-02-15T14:37:14;6.30;99.90
14095;DHT22;18096;48.142;16.290;2023-02-15T14:42:36;6.20;99.90
14095;DHT22;18096;48.142;16.290;2023-02-15T14:47:39;6.20;99.90
14095;DHT22;18096;48.142;16.290;2023-02-15T14:55:36;6.30;99.90
14095;DHT22;18096;48.142;16.290;2023-02-15T14:58:01;6.30;99.90
14095;DHT22;18096;48.142;16.290;2023-02-15T15:00:31;6.30;99.90
14095;DHT22;18096;48.142;16.290;2023-02-15T15:02:58;6.30;99.90
14095;DHT22;18096;48.142;16.290;2023-02-15T15:05:34;6.20;99.90
14095;DHT22;18096;48.142;16.290;2023-02-15T15:08:00;6.10;99.90
14095;DHT22;18096;48.142;16.290;2023-02-15T15:10:34;6.20;99.90
14095;DHT22;18096;48.142;16.290;2023-02-15T15:13:34;6.20;99.90
14095;DHT22;18096;48.142;16.290;2023-02-15T15:15:46;6.10;99.90
14095;DHT22;18096;48.142;16.290;2023-02-15T15:18:42;6.10;99.90
14095;DHT22;18096;48.142;16.290;2023-02-15T15:20:57;6.10;99.90
14095;DHT22;18096;48.142;16.290;2023-02-15T15:25:49;6.00;99.90
14095;DHT22;18096;48.142;16.290;2023-02-15T15:31:19;5.90;99.90
14095;DHT22;18096;48.142;16.290;2023-02-15T15:36:54;5.80;99.90
14095;DHT22;18096;48.142;16.290;2023-02-15T15:41:52;5.80;99.90
14095;DHT22;18096;48.142;16.290;2023-02-15T15:49:33;5.80;99.90
14095;DHT22;18096;48.142;16.290;2023-02-15T15:52:01;5.70;99.90
14095;DHT22;18096;48.142;16.290;2023-02-15T15:54:27;5.70;99.90
14095;DHT22;18096;48.142;16.290;2023-02-15T15:56:53;5.70;99.90
14095;DHT22;18096;48.142;16.290;2023-02-15T15:59:24;5.60;99.90
14095;DHT22;18096;48.142;16.290;2023-02-15T16:01:50;5.60;99.90
14095;DHT22;18096;48.142;16.290;2023-02-15T16:04:23;5.60;99.90
14095;DHT22;18096;48.142;16.290;2023-02-15T16:06:49;5.50;99.90
14095;DHT22;18096;48.142;16.290;2023-02-15T16:09:25;5.40;99.90
14095;DHT22;18096;48.142;16.290;2023-02-15T16:11:52;5.40;99.90
14095;DHT22;18096;48.142;16.290;2023-02-15T16:14:24;5.40;99.90
14095;DHT22;18096;48.142;16.290;2023-02-15T16:16:52;5.40;99.90
14095;DHT22;18096;48.142;16.290;2023-02-15T16:19:24;5.30;99.90
14095;DHT22;18096;48.142;16.290;2023-02-15T16:21:51;5.30;99.90
14095;DHT22;18096;48.142;16.290;2023-02-15T16:27:05;5.10;99.90
14095;DHT22;18096;48.142;16.290;2023-02-15T16:29:35;5.00;99.90
14095;DHT22;18096;48.142;16.290;2023-02-15T16:32:05;5.00;99.90
14095;DHT22;18096;48.142;16.290;2023-02-15T16:34:31;4.90;99.90
14095;DHT22;18096;48.142;16.290;2023-02-15T16:37:15;4.90;99.90
14095;DHT22;18096;48.142;16.290;2023-02-15T16:39:42;4.90;99.90
14095;DHT22;18096;48.142;16.290;2023-02-15T16:42:09;4.80;99.90
14095;DHT22;18096;48.142;16.290;2023-02-15T16:44:37;4.80;99.90
14095;DHT22;18096;48.142;16.290;2023-02-15T16:47:02;4.70;99.90
14095;DHT22;18096;48.142;16.290;2023-02-15T16:49:28;4.70;99.90
14095;DHT22;18096;48.142;16.290;2023-02-15T16:51:56;4.70;99.90
14095;DHT22;18096;48.142;16.290;2023-02-15T16:54:22;4.60;99.90
14095;DHT22;18096;48.142;16.290;2023-02-15T16:56:49;4.60;99.90
14095;DHT22;18096;48.142;16.290;2023-02-15T17:01:47;4.50;99.90
14095;DHT22;18096;48.142;16.290;2023-02-15T17:07:20;4.40;99.90
14095;DHT22;18096;48.142;16.290;2023-02-15T17:09:41;4.40;99.90
14095;DHT22;18096;48.142;16.290;2023-02-15T17:12:33;4.40;99.90
14095;DHT22;18096;48.142;16.290;2023-02-15T17:14:59;4.30;99.90
14095;DHT22;18096;48.142;16.290;2023-02-15T17:17:25;4.30;99.90
14095;DHT22;18096;48.142;16.290;2023-02-15T17:19:52;4.20;99.90
14095;DHT22;18096;48.142;16.290;2023-02-15T17:22:22;4.20;99.90
14095;DHT22;18096;48.142;16.290;2023-02-15T17:24:49;4.20;99.90
14095;DHT22;18096;48.142;16.290;2023-02-15T17:27:23;4.10;99.90
14095;DHT22;18096;48.142;16.290;2023-02-15T17:29:51;4.10;99.90
14095;DHT22;18096;48.142;16.290;2023-02-15T17:32:20;4.00;99.90
14095;DHT22;18096;48.142;16.290;2023-02-15T17:34:56;4.00;99.90
14095;DHT22;18096;48.142;16.290;2023-02-15T17:37:27;3.90;99.90
14095;DHT22;18096;48.142;16.290;2023-02-15T17:39:57;3.90;99.90
14095;DHT22;18096;48.142;16.290;2023-02-15T17:42:23;3.90;99.90
14095;DHT22;18096;48.142;16.290;2023-02-15T17:44:49;3.80;99.90
14095;DHT22;18096;48.142;16.290;2023-02-15T17:47:22;3.80;99.90
14095;DHT22;18096;48.142;16.290;2023-02-15T17:49:49;3.70;99.90
14095;DHT22;18096;48.142;16.290;2023-02-15T17:52:16;3.70;99.90
14095;DHT22;18096;48.142;16.290;2023-02-15T17:54:43;3.60;99.90
14095;DHT22;18096;48.142;16.290;2023-02-15T17:57:27;3.60;99.90
14095;DHT22;18096;48.142;16.290;2023-02-15T17:59:53;3.50;99.90
14095;DHT22;18096;48.142;16.290;2023-02-15T18:02:37;3.50;99.90
14095;DHT22;18096;48.142;16.290;2023-02-15T18:05:22;3.50;99.90
14095;DHT22;18096;48.142;16.290;2023-02-15T18:08:15;3.40;99.90
14095;DHT22;18096;48.142;16.290;2023-02-15T18:11:00;3.30;99.90
14095;DHT22;18096;48.142;16.290;2023-02-15T18:13:45;3.30;99.90
14095;DHT22;18096;48.142;16.290;2023-02-15T18:16:14;3.30;99.90
14095;DHT22;18096;48.142;16.290;2023-02-15T18:18:41;3.30;99.90
14095;DHT22;18096;48.142;16.290;2023-02-15T18:21:07;3.20;99.90
14095;DHT22;18096;48.142;16.290;2023-02-15T18:23:38;3.20;99.90
14095;DHT22;18096;48.142;16.290;2023-02-15T18:26:04;3.20;99.90
14095;DHT22;18096;48.142;16.290;2023-02-15T18:28:30;3.20;99.90
14095;DHT22;18096;48.142;16.290;2023-02-15T18:30:57;3.10;99.90
14095;DHT22;18096;48.142;16.290;2023-02-15T18:33:37;3.10;99.90
14095;DHT22;18096;48.142;16.290;2023-02-15T18:36:04;3.10;99.90
14095;DHT22;18096;48.142;16.290;2023-02-15T18:38:31;3.00;99.90
14095;DHT22;18096;48.142;16.290;2023-02-15T18:40:57;3.00;99.90
14095;DHT22;18096;48.142;16.290;2023-02-15T18:43:23;2.90;99.90
14095;DHT22;18096;48.142;16.290;2023-02-15T18:45:49;2.90;99.90